Time;durP1;ratioP1;P1;durP2;ratioP2;P2;SDS_P1;SDS_P2;PMS_P1;PMS_P2;Temp;Humidity;BMP_temperature;BMP_pressure;BME280_temperature;BME280_humidity;BME280_pressure;Samples;Min_cycle;Max_cycle;Signal;HPM_P1;HPM_P2
2021/03/10 00:00:28;;;;;;;38.60;18.30;;;;;;;-3.65;63.70;101040.84;98300;1170;88022;-72
2021/03/10 00:02:45;;;;;;;36.00;18.15;;;;;;;-3.72;63.33;101041.27;98306;1168;74893;-71
2021/03/10 00:04:50;;;;;;;39.90;18.10;;;;;;;-3.79;63.26;101038.09;98331;1171;89829;-71
2021/03/10 00:06:55;;;;;;;37.90;18.57;;;;;;;-3.85;64.03;101034.95;98280;1171;83517;-71
2021/03/10 00:09:01;;;;;;;38.50;19.00;;;;;;;-3.90;63.61;101039.63;98319;1168;69135;-66
2021/03/10 00:11:07;;;;;;;45.90;19.30;;;;;;;-3.97;63.61;101036.45;98240;1171;86748;-73
2021/03/10 00:13:12;;;;;;;37.83;17.97;;;;;;;-4.00;64.06;101038.39;98298;1171;76202;-71
2021/03/10 00:15:18;;;;;;;41.10;18.70;;;;;;;-4.06;64.09;101028.16;98296;1166;89376;-71
2021/03/10 00:17:23;;;;;;;36.25;17.15;;;;;;;-4.11;64.31;101035.47;98262;1171;83016;-71
2021/03/10 00:19:28;;;;;;;40.65;17.85;;;;;;;-4.19;65.03;101034.11;98323;1168;69599;-62
2021/03/10 00:21:37;;;;;;;39.53;17.93;;;;;;;-4.12;64.62;101037.25;98306;1171;86633;-64
2021/03/10 00:23:45;;;;;;;35.80;18.00;;;;;;;-4.09;64.68;101029.18;98293;1171;74241;-64
2021/03/10 00:25:51;;;;;;;35.20;17.65;;;;;;;-4.09;64.75;101033.63;98253;1168;88377;-72
2021/03/10 00:27:56;;;;;;;35.70;18.40;;;;;;;-4.09;64.47;101033.63;98275;1171;82995;-72
2021/03/10 00:30:06;;;;;;;35.80;17.13;;;;;;;-4.15;64.98;101034.80;98275;1171;69155;-62
2021/03/10 00:32:12;;;;;;;39.00;19.70;;;;;;;-4.15;64.92;101031.31;98286;1171;87377;-64
2021/03/10 00:34:20;;;;;;;38.25;17.65;;;;;;;-4.13;65.06;101029.44;98307;1171;75482;-71
2021/03/10 00:36:25;;;;;;;39.50;18.05;;;;;;;-4.19;65.30;101022.70;98323;1172;90736;-70
2021/03/10 00:38:31;;;;;;;35.60;18.10;;;;;;;-4.21;65.22;101020.16;98286;1166;81485;-72
2021/03/10 00:40:39;;;;;;;38.00;17.60;;;;;;;-4.20;65.07;101016.56;98349;1167;69177;-72
2021/03/10 00:42:45;;;;;;;32.40;17.60;;;;;;;-4.15;65.14;101015.48;98288;1167;87443;-70
2021/03/10 00:44:50;;;;;;;38.55;17.30;;;;;;;-4.10;65.49;101018.72;98305;1169;74654;-63
2021/03/10 00:46:56;;;;;;;41.05;17.95;;;;;;;-4.00;65.19;101017.29;98301;1172;90231;-63
2021/03/10 00:49:01;;;;;;;38.60;18.10;;;;;;;-3.98;64.79;101015.44;98285;1171;82594;-67
2021/03/10 00:51:08;;;;;;;37.20;18.10;;;;;;;-3.96;65.07;101013.56;98266;1170;69181;-70
2021/03/10 00:53:13;;;;;;;35.30;18.50;;;;;;;-3.99;65.02;101014.59;98280;1167;87380;-71
2021/03/10 00:55:23;;;;;;;33.55;17.40;;;;;;;-3.97;65.34;101017.98;98299;1168;74536;-70
2021/03/10 00:57:29;;;;;;;36.10;19.15;;;;;;;-3.91;65.14;101014.16;98276;1172;90264;-71
2021/03/10 00:59:34;;;;;;;42.50;18.73;;;;;;;-3.93;64.90;101010.77;98272;1168;82336;-63
2021/03/10 01:01:40;;;;;;;35.35;18.35;;;;;;;-3.96;65.19;101018.84;98289;1171;67533;-64
2021/03/10 01:03:45;;;;;;;34.87;15.33;;;;;;;-3.94;65.20;101011.69;98258;1167;87310;-62
2021/03/10 01:05:50;;;;;;;36.20;17.70;;;;;;;-3.94;64.93;101016.97;98303;1171;76011;-63
2021/03/10 01:07:56;;;;;;;36.35;17.65;;;;;;;-3.90;64.56;101019.34;98271;1166;89637;-63
2021/03/10 01:10:09;;;;;;;34.60;17.40;;;;;;;-3.86;64.87;101015.63;98285;1172;83621;-70
2021/03/10 01:12:14;;;;;;;31.20;15.10;;;;;;;-3.83;64.53;101009.33;98313;1171;68165;-71
2021/03/10 01:14:19;;;;;;;38.90;19.20;;;;;;;-3.82;64.85;101013.67;98271;1171;86953;-63
2021/03/10 01:16:25;;;;;;;36.93;17.57;;;;;;;-3.78;64.76;101012.55;98284;1167;75108;-62
2021/03/10 01:18:30;;;;;;;35.63;18.03;;;;;;;-3.79;64.74;101002.95;98296;1166;89864;-63
2021/03/10 01:20:38;;;;;;;36.03;18.07;;;;;;;-3.76;64.85;101006.25;98334;1171;82261;-62
2021/03/10 01:22:44;;;;;;;36.25;17.35;;;;;;;-3.85;64.60;101004.14;98278;1171;69164;-62
2021/03/10 01:24:49;;;;;;;39.80;18.90;;;;;;;-3.90;65.09;101003.52;98296;1171;87553;-70
2021/03/10 01:26:55;;;;;;;39.45;17.20;;;;;;;-3.97;64.90;101009.21;98261;1170;76193;-70
2021/03/10 01:29:00;;;;;;;37.95;17.80;;;;;;;-4.03;65.01;100999.84;98262;1170;88987;-69
2021/03/10 01:31:06;;;;;;;39.80;17.40;;;;;;;-4.05;64.86;101004.36;98267;1171;83064;-64
2021/03/10 01:33:12;;;;;;;32.93;18.07;;;;;;;-4.07;64.86;101005.38;98294;1166;69151;-64
2021/03/10 01:35:18;;;;;;;37.95;18.70;;;;;;;-4.20;64.98;101003.38;98270;1170;87220;-70
2021/03/10 01:37:26;;;;;;;37.15;17.55;;;;;;;-4.29;65.49;100998.61;98284;1171;75451;-69
2021/03/10 01:39:31;;;;;;;35.47;18.10;;;;;;;-4.34;65.74;100995.34;98319;1171;89318;-63
2021/03/10 01:41:38;;;;;;;32.80;17.10;;;;;;;-4.38;65.60;101003.50;98265;1167;82186;-62
2021/03/10 01:43:43;;;;;;;38.65;18.30;;;;;;;-4.41;65.87;100999.23;98282;1171;69183;-61
2021/03/10 01:45:49;;;;;;;33.90;17.20;;;;;;;-4.47;66.20;100989.01;98286;1167;87832;-62
2021/03/10 01:47:55;;;;;;;32.55;16.20;;;;;;;-4.50;66.03;100994.44;98293;1171;75158;-62
2021/03/10 01:50:00;;;;;;;37.30;19.05;;;;;;;-4.56;66.14;100994.75;98261;1171;89699;-70
2021/03/10 01:52:07;;;;;;;34.75;17.95;;;;;;;-4.62;66.29;100991.59;98273;1171;82714;-70
2021/03/10 01:54:12;;;;;;;36.00;17.90;;;;;;;-4.60;66.29;100995.00;98313;1166;69123;-63
2021/03/10 01:56:19;;;;;;;32.40;17.67;;;;;;;-4.63;66.32;100990.73;98281;1171;89209;-63
2021/03/10 01:58:25;;;;;;;38.05;17.10;;;;;;;-4.65;66.60;100982.06;98294;1168;75491;-63
2021/03/10 02:00:31;;;;;;;37.17;17.77;;;;;;;-4.70;66.53;100984.09;98296;1167;89961;-63
2021/03/10 02:02:36;;;;;;;31.30;17.10;;;;;;;-4.71;66.47;100978.88;98276;1172;83210;-63
2021/03/10 02:04:45;;;;;;;39.95;18.20;;;;;;;-4.76;66.89;100981.77;98279;1167;69151;-70
2021/03/10 02:07:03;;;;;;;35.65;16.95;;;;;;;-4.78;66.66;100981.00;98285;1171;88549;-71
2021/03/10 02:09:17;;;;;;;33.10;17.37;;;;;;;-4.75;66.90;100979.98;98285;1170;74506;-71
2021/03/10 02:11:34;;;;;;;36.30;17.60;;;;;;;-4.73;67.18;100981.61;98306;1167;89811;-70
2021/03/10 02:13:54;;;;;;;41.90;19.90;;;;;;;-4.67;67.05;100976.03;98341;1171;82628;-71
2021/03/10 02:16:10;;;;;;;41.45;18.80;;;;;;;-4.61;67.23;100966.92;98285;1171;69257;-71
2021/03/10 02:18:26;;;;;;;40.70;18.70;;;;;;;-4.60;67.05;100968.64;98264;1167;88120;-70
2021/03/10 02:20:36;;;;;;;34.67;17.87;;;;;;;-4.58;67.21;100972.90;98319;1171;74976;-70
2021/03/10 02:23:23;;;;;;;37.23;18.77;;;;;;;-4.64;67.23;100965.30;98282;1171;88522;-72
2021/03/10 02:25:47;;;;;;;38.30;18.10;;;;;;;-4.64;66.76;100972.38;98116;1172;83340;-69
2021/03/10 02:27:58;;;;;;;44.85;18.80;;;;;;;-4.68;67.20;100968.19;98280;1172;69199;-71
2021/03/10 02:30:09;;;;;;;39.20;19.50;;;;;;;-4.69;67.46;100971.74;98262;1172;87093;-71
2021/03/10 02:32:16;;;;;;;35.40;17.60;;;;;;;-4.70;67.39;100968.28;98273;1170;74831;-71
2021/03/10 02:34:22;;;;;;;34.30;17.50;;;;;;;-4.77;67.22;100972.14;98300;1167;89470;-64
2021/03/10 02:36:29;;;;;;;34.80;18.35;;;;;;;-4.79;67.63;100979.28;98278;1172;83246;-64
2021/03/10 02:38:43;;;;;;;35.85;18.75;;;;;;;-4.83;67.86;100973.31;98279;1164;69154;-64
2021/03/10 02:40:50;;;;;;;38.80;17.80;;;;;;;-4.82;67.72;100974.16;98324;1171;87388;-64
2021/03/10 02:42:57;;;;;;;38.90;19.50;;;;;;;-4.88;67.87;100974.47;98288;1166;74755;-63
2021/03/10 02:45:05;;;;;;;37.50;18.20;;;;;;;-4.82;68.10;100971.53;98276;1171;90359;-63
2021/03/10 02:47:12;;;;;;;34.80;18.80;;;;;;;-4.87;68.37;100965.65;98271;1170;81665;-63
2021/03/10 02:49:21;;;;;;;37.90;20.20;;;;;;;-4.74;68.06;100966.72;98309;1172;68905;-63
2021/03/10 02:51:28;;;;;;;45.70;21.40;;;;;;;-4.69;68.05;100972.59;98299;1169;88932;-63
2021/03/10 02:53:41;;;;;;;43.10;19.80;;;;;;;-4.64;68.12;100967.94;98252;1170;74396;-65
2021/03/10 02:55:46;;;;;;;41.45;20.60;;;;;;;-4.63;68.00;100968.80;98317;1166;89760;-71
2021/03/10 02:57:53;;;;;;;45.07;20.90;;;;;;;-4.67;67.85;100973.39;98261;1167;83242;-71
2021/03/10 03:00:10;;;;;;;42.00;20.60;;;;;;;-4.69;68.30;100974.38;98319;1170;69128;-70
2021/03/10 03:02:15;;;;;;;44.50;21.50;;;;;;;-4.71;68.26;100976.25;98242;1166;87718;-70
2021/03/10 03:04:27;;;;;;;41.60;19.45;;;;;;;-4.76;68.30;100976.49;98293;1167;75368;-70
2021/03/10 03:06:34;;;;;;;41.80;21.50;;;;;;;-4.81;68.09;100971.44;98296;1170;88828;-62
2021/03/10 03:08:40;;;;;;;42.60;20.70;;;;;;;-4.86;68.14;100967.33;98251;1171;82583;-63
2021/03/10 03:10:46;;;;;;;38.60;20.50;;;;;;;-4.87;68.21;100971.78;98285;1171;69178;-72
2021/03/10 03:12:53;;;;;;;39.25;20.00;;;;;;;-4.85;68.23;100969.05;98289;1172;87799;-70
2021/03/10 03:14:59;;;;;;;41.35;20.50;;;;;;;-4.88;68.19;100961.30;98313;1172;75848;-70
2021/03/10 03:17:05;;;;;;;43.30;21.10;;;;;;;-4.89;68.45;100962.25;98283;1166;89114;-70
2021/03/10 03:19:11;;;;;;;38.70;20.10;;;;;;;-4.91;68.13;100959.67;98251;1172;83809;-70
2021/03/10 03:21:17;;;;;;;43.40;21.50;;;;;;;-4.92;68.22;100962.40;98293;1171;69149;-72
2021/03/10 03:23:25;;;;;;;41.60;20.40;;;;;;;-4.94;68.17;100974.77;98266;1170;86620;-71
2021/03/10 03:25:35;;;;;;;42.50;21.33;;;;;;;-4.98;68.39;100968.83;98265;1166;75249;-63
2021/03/10 03:27:43;;;;;;;41.55;21.45;;;;;;;-5.02;68.69;100972.53;98090;1172;88962;-71
2021/03/10 03:29:48;;;;;;;43.25;20.50;;;;;;;-5.07;68.24;100971.06;98303;1172;81909;-71
2021/03/10 03:31:55;;;;;;;41.10;21.30;;;;;;;-5.05;68.59;100977.09;98292;1170;69193;-71
2021/03/10 03:34:01;;;;;;;45.00;20.80;;;;;;;-5.06;68.25;100972.78;97968;1168;87015;-66
2021/03/10 03:36:10;;;;;;;41.30;20.50;;;;;;;-5.06;68.42;100978.05;98276;1171;76998;-63
2021/03/10 03:38:21;;;;;;;40.20;20.30;;;;;;;-5.12;68.39;100981.84;98305;1172;89535;-63
2021/03/10 03:40:28;;;;;;;39.95;20.75;;;;;;;-5.23;68.85;100968.34;98035;1167;83189;-63
2021/03/10 03:42:33;;;;;;;45.70;21.60;;;;;;;-5.30;68.77;100966.10;98245;1172;68070;-63
2021/03/10 03:44:40;;;;;;;45.95;21.95;;;;;;;-5.33;68.78;100974.14;98294;1172;88860;-71
2021/03/10 03:46:46;;;;;;;46.20;21.80;;;;;;;-5.35;68.97;100976.83;98114;1171;75024;-71
2021/03/10 03:48:51;;;;;;;39.00;20.10;;;;;;;-5.40;68.88;100970.95;98275;1171;90504;-70
2021/03/10 03:50:56;;;;;;;42.10;19.90;;;;;;;-5.43;68.77;100976.36;98082;1168;82733;-72
2021/03/10 03:53:02;;;;;;;47.50;21.50;;;;;;;-5.44;68.85;100979.94;98369;1167;69645;-72
2021/03/10 03:55:13;;;;;;;45.33;20.80;;;;;;;-5.51;69.04;100975.88;98260;1167;87342;-71
2021/03/10 03:57:19;;;;;;;46.70;21.35;;;;;;;-5.55;68.87;100972.53;98060;1168;75264;-71
2021/03/10 03:59:24;;;;;;;48.70;21.80;;;;;;;-5.55;69.07;100985.69;98238;1172;90348;-71
2021/03/10 04:01:30;;;;;;;43.25;20.50;;;;;;;-5.55;68.96;100987.50;98035;1172;82419;-71
2021/03/10 04:03:35;;;;;;;40.85;21.75;;;;;;;-5.60;69.20;100979.80;98298;1172;68064;-71
2021/03/10 04:05:43;;;;;;;45.10;21.40;;;;;;;-5.64;69.48;100980.89;98308;1171;87463;-63
2021/03/10 04:07:51;;;;;;;44.80;21.00;;;;;;;-5.73;69.37;100983.95;98057;1172;75541;-63
2021/03/10 04:09:56;;;;;;;42.90;20.10;;;;;;;-5.80;69.40;100977.28;98343;1171;88401;-71
2021/03/10 04:12:07;;;;;;;43.20;21.40;;;;;;;-5.83;69.54;100982.69;98244;1172;83797;-72
2021/03/10 04:14:13;;;;;;;42.45;20.15;;;;;;;-5.86;69.55;100984.63;98291;1170;69321;-71
2021/03/10 04:16:19;;;;;;;46.50;21.10;;;;;;;-5.94;69.59;100979.73;98058;1172;88620;-70
2021/03/10 04:18:24;;;;;;;42.23;21.73;;;;;;;-5.97;69.74;100979.87;98288;1167;75037;-72
2021/03/10 04:20:30;;;;;;;38.30;21.30;;;;;;;-6.03;69.78;100980.14;98332;1170;90948;-64
2021/03/10 04:22:35;;;;;;;48.60;22.90;;;;;;;-6.04;69.53;100976.66;98047;1171;82142;-63
2021/03/10 04:24:41;;;;;;;48.00;22.50;;;;;;;-6.00;69.96;100977.38;98333;1168;69129;-63
2021/03/10 04:26:47;;;;;;;45.35;22.60;;;;;;;-6.05;69.75;100984.63;98285;1170;87196;-63
2021/03/10 04:28:53;;;;;;;42.10;23.67;;;;;;;-6.11;70.29;100987.53;98042;1170;74689;-63
2021/03/10 04:30:58;;;;;;;44.75;22.35;;;;;;;-6.13;70.26;100984.98;98306;1172;90055;-64
2021/03/10 04:33:05;;;;;;;54.40;23.65;;;;;;;-6.13;70.37;100989.39;98242;1172;83424;-63
2021/03/10 04:35:12;;;;;;;48.90;23.20;;;;;;;-6.10;70.40;100989.25;98095;1167;69722;-72
2021/03/10 04:37:21;;;;;;;50.83;24.40;;;;;;;-6.05;70.46;100982.00;98279;1166;87534;-72
2021/03/10 04:39:26;;;;;;;50.80;24.20;;;;;;;-6.00;70.49;100990.53;98320;1171;75614;-71
2021/03/10 04:41:32;;;;;;;48.50;22.50;;;;;;;-6.03;70.65;100986.27;98062;1171;89081;-71
2021/03/10 04:43:38;;;;;;;45.10;23.40;;;;;;;-6.02;70.57;100987.98;98285;1167;82871;-71
2021/03/10 04:45:43;;;;;;;49.37;25.30;;;;;;;-5.96;70.96;100978.95;98254;1168;69179;-63
2021/03/10 04:47:51;;;;;;;51.63;25.30;;;;;;;-5.88;71.08;100984.72;98073;1167;87314;-63
2021/03/10 04:49:57;;;;;;;57.27;25.47;;;;;;;-5.78;71.01;100985.09;98286;1167;75979;-71
2021/03/10 04:52:02;;;;;;;51.40;25.70;;;;;;;-5.79;70.73;100986.86;98356;1167;89199;-71
2021/03/10 04:54:08;;;;;;;46.30;24.30;;;;;;;-5.75;71.10;100984.95;98076;1174;83362;-71
2021/03/10 04:56:14;;;;;;;49.50;24.85;;;;;;;-5.70;70.90;100986.44;98333;1171;69123;-70
2021/03/10 04:58:19;;;;;;;52.15;24.50;;;;;;;-5.63;70.82;100987.01;98308;1172;88209;-71
2021/03/10 05:00:25;;;;;;;46.30;22.50;;;;;;;-5.61;71.17;100986.01;98143;1168;75591;-64
2021/03/10 05:02:30;;;;;;;51.80;25.20;;;;;;;-5.58;70.90;100983.23;98319;1170;88652;-64
2021/03/10 05:04:36;;;;;;;50.90;24.45;;;;;;;-5.50;71.03;100988.13;98089;1171;83114;-72
2021/03/10 05:06:41;;;;;;;51.10;24.30;;;;;;;-5.45;70.99;100986.97;98302;1167;69200;-72
2021/03/10 05:08:47;;;;;;;52.40;25.40;;;;;;;-5.41;70.93;100995.55;98316;1171;86420;-72
2021/03/10 05:10:54;;;;;;;51.40;26.80;;;;;;;-5.33;70.88;100992.57;98189;1171;74523;-63
2021/03/10 05:13:00;;;;;;;46.80;25.00;;;;;;;-5.30;70.98;100987.16;98302;1172;90971;-65
2021/03/10 05:15:07;;;;;;;52.53;25.50;;;;;;;-5.19;70.77;100990.95;98280;1170;82350;-71
2021/03/10 05:17:13;;;;;;;50.53;23.83;;;;;;;-5.10;71.17;100984.38;98106;1168;69154;-70
2021/03/10 05:19:18;;;;;;;44.75;23.60;;;;;;;-5.01;71.29;100983.93;98300;1170;86885;-71
2021/03/10 05:21:24;;;;;;;50.55;24.35;;;;;;;-4.98;71.50;100987.27;98304;1170;74457;-71
2021/03/10 05:23:29;;;;;;;50.63;24.20;;;;;;;-4.87;71.21;100981.45;98121;1168;89040;-71
2021/03/10 05:25:37;;;;;;;50.75;25.15;;;;;;;-4.74;71.01;100981.67;98277;1167;82426;-71
2021/03/10 05:27:43;;;;;;;53.03;24.17;;;;;;;-4.66;71.32;100979.49;98289;1172;69157;-71
2021/03/10 05:29:48;;;;;;;46.40;24.50;;;;;;;-4.56;71.11;100981.57;98275;1172;87618;-64
2021/03/10 05:31:54;;;;;;;46.60;23.00;;;;;;;-4.47;71.29;100986.38;98064;1172;74861;-64
2021/03/10 05:34:00;;;;;;;47.80;24.20;;;;;;;-4.34;71.23;100981.33;98345;1171;89680;-70
2021/03/10 05:36:07;;;;;;;48.70;23.10;;;;;;;-4.29;71.13;100977.52;98253;1171;82092;-64
2021/03/10 05:38:13;;;;;;;51.00;25.10;;;;;;;-4.21;70.99;100988.50;98105;1167;69126;-63
2021/03/10 05:40:20;;;;;;;54.40;24.50;;;;;;;-3.97;71.42;100990.74;98295;1170;87153;-71
2021/03/10 05:42:27;;;;;;;54.50;26.45;;;;;;;-3.76;70.82;100987.78;98325;1168;75133;-72
2021/03/10 05:44:33;;;;;;;50.20;26.20;;;;;;;-3.58;70.71;100993.84;98296;1172;90746;-71
2021/03/10 05:46:39;;;;;;;51.60;27.40;;;;;;;-3.35;71.04;100992.56;98098;1171;81358;-71
2021/03/10 05:48:45;;;;;;;49.10;25.65;;;;;;;-2.90;70.28;100995.19;98315;1167;69170;-71
2021/03/10 05:50:50;;;;;;;48.10;25.85;;;;;;;-2.48;70.96;100991.80;98261;1172;87956;-72
2021/03/10 05:52:56;;;;;;;49.40;25.87;;;;;;;-2.14;70.64;100990.61;98267;1170;74659;-72
2021/03/10 05:55:08;;;;;;;49.65;25.75;;;;;;;-1.80;69.86;100983.11;98117;1167;89705;-63
2021/03/10 05:57:14;;;;;;;51.80;26.75;;;;;;;-1.05;69.44;100992.38;98250;1172;82904;-63
2021/03/10 05:59:19;;;;;;;51.23;26.37;;;;;;;-0.39;69.06;100994.94;98045;1172;69397;-64
2021/03/10 06:01:25;;;;;;;51.80;26.40;;;;;;;0.37;68.14;100998.38;98303;1172;88069;-63
2021/03/10 06:03:34;;;;;;;51.40;27.40;;;;;;;0.95;68.17;100994.99;98301;1171;74850;-63
2021/03/10 06:05:40;;;;;;;49.47;27.00;;;;;;;1.52;67.22;100988.89;98311;1172;88909;-72
2021/03/10 06:07:59;;;;;;;49.80;27.20;;;;;;;2.07;66.91;100978.33;98252;1172;83936;-71
2021/03/10 06:10:08;;;;;;;48.37;25.97;;;;;;;2.47;65.77;100986.67;98301;1170;69263;-63
2021/03/10 06:12:14;;;;;;;45.80;26.60;;;;;;;2.71;64.36;100991.83;98278;1172;87698;-63
2021/03/10 06:14:23;;;;;;;49.00;26.60;;;;;;;2.33;63.33;100989.59;98282;1167;75699;-63
2021/03/10 06:16:31;;;;;;;46.10;25.40;;;;;;;1.98;63.01;101000.34;98255;1170;89666;-62
2021/03/10 06:18:37;;;;;;;48.37;26.20;;;;;;;1.51;62.89;101004.02;98268;1172;83095;-62
2021/03/10 06:20:43;;;;;;;46.55;26.10;;;;;;;1.15;62.75;101012.96;98254;1168;70066;-63
2021/03/10 06:22:52;;;;;;;47.70;26.80;;;;;;;1.02;63.34;101019.30;98315;1172;87278;-63
2021/03/10 06:25:03;;;;;;;47.45;27.05;;;;;;;0.88;62.94;101020.32;98227;1167;75083;-72
2021/03/10 06:27:10;;;;;;;49.15;26.65;;;;;;;0.82;62.87;101022.60;98286;1171;88108;-70
2021/03/10 06:29:17;;;;;;;50.80;26.20;;;;;;;0.71;62.82;101012.75;98269;1172;81348;-62
2021/03/10 06:31:25;;;;;;;48.43;26.70;;;;;;;0.68;62.81;101014.77;98344;1171;69132;-63
2021/03/10 06:33:30;;;;;;;49.60;25.90;;;;;;;0.64;62.83;101023.92;98138;1171;87901;-63
2021/03/10 06:35:36;;;;;;;48.80;27.20;;;;;;;0.88;63.42;101022.16;98312;1172;74734;-62
2021/03/10 06:37:42;;;;;;;49.60;26.70;;;;;;;0.85;62.61;101020.55;98267;1172;89957;-63
2021/03/10 06:39:50;;;;;;;48.10;26.50;;;;;;;0.82;62.13;101020.80;98079;1171;84140;-72
2021/03/10 06:41:58;;;;;;;50.40;27.10;;;;;;;0.72;62.19;101021.55;98332;1171;67235;-74
2021/03/10 06:44:15;;;;;;;47.40;25.70;;;;;;;0.69;62.34;101029.78;98322;1171;87619;-61
2021/03/10 06:46:21;;;;;;;49.80;27.20;;;;;;;0.64;62.45;101029.23;98282;1171;74392;-61
2021/03/10 06:48:30;;;;;;;47.40;26.60;;;;;;;0.86;62.47;101029.38;98297;1171;89432;-64
2021/03/10 06:50:37;;;;;;;45.65;26.00;;;;;;;1.07;62.30;101019.84;98301;1172;83079;-62
2021/03/10 06:52:53;;;;;;;41.50;24.65;;;;;;;1.18;62.26;101025.22;98310;1172;69129;-67
2021/03/10 06:55:03;;;;;;;47.40;25.10;;;;;;;1.35;61.56;101030.10;98303;1167;86890;-72
2021/03/10 06:57:14;;;;;;;48.63;24.70;;;;;;;1.70;61.40;101022.13;98304;1172;74684;-71
2021/03/10 06:59:19;;;;;;;49.50;24.77;;;;;;;1.77;61.02;101018.86;98249;1170;89150;-62
2021/03/10 07:01:28;;;;;;;45.60;25.20;;;;;;;2.06;60.88;101026.42;98251;1171;82878;-62
2021/03/10 07:03:34;;;;;;;43.13;24.07;;;;;;;2.55;60.52;101024.23;98276;1168;69129;-60
2021/03/10 07:05:39;;;;;;;48.50;26.45;;;;;;;2.79;59.92;101032.92;98265;1171;87133;-76
2021/03/10 07:07:49;;;;;;;46.90;25.50;;;;;;;3.05;59.64;101028.11;98284;1166;75594;-77
2021/03/10 07:09:56;;;;;;;42.90;24.45;;;;;;;3.13;58.89;101027.50;98302;1172;89745;-61
2021/03/10 07:12:03;;;;;;;44.30;25.30;;;;;;;3.11;58.57;101026.76;98146;1170;82704;-62
2021/03/10 07:14:11;;;;;;;40.97;24.23;;;;;;;3.02;57.98;101031.06;98297;1166;69126;-62
2021/03/10 07:16:17;;;;;;;45.25;25.20;;;;;;;2.96;58.22;101034.23;98094;1174;87570;-61
2021/03/10 07:18:26;;;;;;;39.90;24.15;;;;;;;3.12;57.97;101039.14;98279;1164;75755;-62
2021/03/10 07:20:32;;;;;;;39.00;23.43;;;;;;;3.37;57.90;101036.15;98279;1172;89462;-61
2021/03/10 07:22:49;;;;;;;45.40;24.70;;;;;;;3.68;57.96;101032.58;98345;1170;83049;-61
2021/03/10 07:25:00;;;;;;;43.40;24.60;;;;;;;4.48;57.47;101038.09;98079;1171;68195;-60
2021/03/10 07:27:10;;;;;;;41.50;23.20;;;;;;;5.19;56.75;101027.14;98283;1172;87247;-62
2021/03/10 07:29:18;;;;;;;36.87;23.10;;;;;;;5.74;56.20;101030.13;98073;1172;74718;-79
2021/03/10 07:31:26;;;;;;;38.15;21.90;;;;;;;6.06;53.76;101029.81;98351;1172;89367;-79
2021/03/10 07:33:32;;;;;;;37.55;22.15;;;;;;;6.11;54.23;101024.85;98333;1166;83773;-78
2021/03/10 07:35:54;;;;;;;34.30;21.40;;;;;;;5.94;53.25;101029.13;98373;1171;69257;-62
2021/03/10 07:37:59;;;;;;;30.43;20.13;;;;;;;6.19;53.13;101031.18;98320;1171;86548;-61
2021/03/10 07:40:15;;;;;;;36.30;21.30;;;;;;;6.63;53.28;101029.60;98163;1172;75544;-61
2021/03/10 07:42:22;;;;;;;33.00;20.70;;;;;;;6.72;51.69;101027.86;98244;1172;89261;-61
2021/03/10 07:44:27;;;;;;;;;;;;;;;6.99;51.44;101031.38;98313;1166;82303;-79
2021/03/10 07:46:37;;;;;;;36.80;21.60;;;;;;;7.65;51.20;101031.88;98302;1172;68882;-76
2021/03/10 07:48:46;;;;;;;38.10;22.67;;;;;;;8.15;49.62;101036.63;98287;1170;87059;-73
2021/03/10 07:50:54;;;;;;;34.40;20.85;;;;;;;9.22;49.76;101033.27;98303;1172;75018;-61
2021/03/10 07:53:00;;;;;;;36.50;20.55;;;;;;;9.84;47.45;101028.25;98291;1172;90252;-61
2021/03/10 07:55:09;;;;;;;35.55;20.20;;;;;;;10.45;47.27;101027.70;98271;1171;82705;-62
2021/03/10 07:57:18;;;;;;;30.90;18.23;;;;;;;11.07;46.02;101031.34;98298;1170;69247;-61
2021/03/10 07:59:27;;;;;;;29.50;19.37;;;;;;;11.71;45.22;101030.94;98156;1167;87744;-75
2021/03/10 08:01:32;;;;;;;28.95;18.10;;;;;;;11.74;41.80;101029.73;98268;1171;76015;-70
2021/03/10 08:03:38;;;;;;;27.60;18.40;;;;;;;11.34;42.90;101030.00;98175;1172;89140;-79
2021/03/10 08:05:43;;;;;;;30.00;18.65;;;;;;;11.82;42.65;101029.66;98311;1171;83687;-61
2021/03/10 08:07:49;;;;;;;33.17;19.37;;;;;;;11.70;41.65;101036.55;98279;1171;69190;-61
2021/03/10 08:09:58;;;;;;;31.25;20.00;;;;;;;11.95;41.62;101035.30;98316;1172;86944;-61
2021/03/10 08:12:10;;;;;;;31.40;19.20;;;;;;;12.16;40.88;101027.33;98066;1172;75518;-60
2021/03/10 08:14:18;;;;;;;29.25;18.45;;;;;;;12.75;39.22;101043.61;98307;1168;88987;-60
2021/03/10 08:16:25;;;;;;;30.90;19.30;;;;;;;13.45;39.30;101039.32;98314;1171;83314;-62
2021/03/10 08:18:32;;;;;;;26.03;17.17;;;;;;;14.01;38.44;101036.70;98331;1167;69094;-61
2021/03/10 08:20:38;;;;;;;28.40;17.00;;;;;;;14.44;38.65;101030.20;98313;1170;87563;-61
2021/03/10 08:22:55;;;;;;;22.27;13.40;;;;;;;14.90;37.34;101025.01;98257;1171;74507;-61
2021/03/10 08:25:05;;;;;;;27.20;16.20;;;;;;;15.25;37.12;101026.61;98324;1168;88728;-62
2021/03/10 08:27:10;;;;;;;25.60;16.30;;;;;;;15.97;35.95;101025.94;98281;1171;82408;-61
2021/03/10 08:29:16;;;;;;;26.50;16.65;;;;;;;16.46;34.61;101029.06;98273;1172;67289;-79
2021/03/10 08:34:14;;;;;;;20.30;14.55;;;;;;;16.16;33.14;101024.25;97957;1174;75982;-62
2021/03/10 08:36:33;;;;;;;21.95;13.95;;;;;;;15.85;33.24;101016.70;98124;1174;89149;-64
2021/03/10 08:38:40;;;;;;;22.50;14.90;;;;;;;15.52;32.77;101027.55;98073;1175;83764;-63
2021/03/10 08:40:46;;;;;;;22.40;15.60;;;;;;;15.32;31.64;101024.77;98047;1175;69424;-63
2021/03/10 08:42:51;;;;;;;26.60;17.40;;;;;;;15.53;32.08;101023.80;98065;1171;87889;-78
2021/03/10 08:44:57;;;;;;;21.35;15.40;;;;;;;15.57;32.11;101030.52;98088;1175;74481;-79
2021/03/10 08:47:13;;;;;;;24.20;15.90;;;;;;;15.08;31.79;101029.91;98033;1175;90349;-78
2021/03/10 08:49:25;;;;;;;24.40;16.40;;;;;;;15.22;32.17;101018.85;98054;1168;82677;-79
2021/03/10 08:51:31;;;;;;;25.10;16.70;;;;;;;15.79;31.91;101012.11;98056;1168;68496;-80
2021/03/10 08:53:37;;;;;;;24.55;16.40;;;;;;;16.01;31.71;101016.31;98102;1173;86705;-78
2021/03/10 08:55:45;;;;;;;23.80;16.10;;;;;;;16.57;31.97;101022.14;98062;1168;75126;-78
2021/03/10 08:57:50;;;;;;;22.90;15.90;;;;;;;16.61;30.83;101028.02;98058;1171;89607;-61
2021/03/10 08:59:56;;;;;;;19.27;13.73;;;;;;;17.03;30.27;101024.75;98048;1168;82012;-62
2021/03/10 09:02:02;;;;;;;20.05;14.45;;;;;;;16.92;30.64;101018.05;98108;1168;69164;-62
2021/03/10 09:04:11;;;;;;;16.30;11.90;;;;;;;16.14;29.55;101015.45;98075;1175;88724;-61
2021/03/10 09:06:17;;;;;;;14.70;10.80;;;;;;;16.07;29.27;101015.45;98062;1175;75724;-60
2021/03/10 09:08:28;;;;;;;13.80;11.20;;;;;;;15.54;27.96;101021.91;98062;1173;88631;-61
2021/03/10 09:10:48;;;;;;;14.00;9.15;;;;;;;15.62;28.12;101030.73;98045;1175;82040;-63
2021/03/10 09:12:57;;;;;;;20.40;12.30;;;;;;;15.80;30.00;101025.51;98055;1175;68463;-60
2021/03/10 09:15:16;;;;;;;19.35;12.65;;;;;;;15.86;29.50;101013.78;98036;1173;88737;-65
2021/03/10 09:17:37;;;;;;;10.60;7.70;;;;;;;15.71;28.41;101013.13;98065;1175;75005;-78
2021/03/10 09:19:51;;;;;;;13.50;9.80;;;;;;;15.89;29.00;101018.81;98062;1174;89894;-73
2021/03/10 09:22:15;;;;;;;14.80;11.40;;;;;;;16.07;27.83;101020.09;98061;1175;82177;-76
2021/03/10 09:24:24;;;;;;;14.97;9.93;;;;;;;15.73;28.61;101018.38;98063;1173;69168;-76
2021/03/10 09:26:40;;;;;;;13.60;9.60;;;;;;;15.84;27.91;101024.06;98052;1172;87259;-76
2021/03/10 09:28:48;;;;;;;16.55;10.25;;;;;;;15.40;27.61;101022.89;98031;1174;76180;-76
2021/03/10 09:30:56;;;;;;;14.70;9.50;;;;;;;14.72;27.84;101022.00;98044;1175;89916;-76
2021/03/10 09:33:02;;;;;;;14.15;10.10;;;;;;;14.56;28.66;101014.98;98041;1175;82079;-62
2021/03/10 09:35:19;;;;;;;;;;;;;;;15.00;28.93;101024.62;98052;1175;68055;-60
2021/03/10 09:37:28;;;;;;;13.70;10.40;;;;;;;15.13;27.96;101005.64;98058;1172;86917;-76
2021/03/10 09:39:41;;;;;;;14.15;9.60;;;;;;;15.33;28.28;101023.70;98054;1175;75653;-77
2021/03/10 09:41:50;;;;;;;12.30;8.90;;;;;;;15.34;27.35;101010.94;98095;1175;90360;-72
2021/03/10 09:44:08;;;;;;;13.40;8.80;;;;;;;14.96;28.23;101020.64;98057;1175;82577;-62
2021/03/10 09:46:18;;;;;;;16.20;9.10;;;;;;;14.76;28.65;101018.66;98087;1169;69129;-61